Clay Center, KS (67432)

11:54 AM CDT on July 10, 2014 (GMT -0500)
Clay County Medical Center (KKSCLAYC2) Elev 1274 ft | 39.39 °N, 97.12 °W | Change Station

Current weather conditions updated 11 seconds ago

Clear
Clear
78.7 °F
Feels Like 81 °F
N
15.0
Wind Variable Wind from ESE
Gusts 15.0 mph

Today is forecast to be nearly the same temperature as yesterday.

Today
High -- | Low -- °F
--% Chance of Precip.
Yesterday
High -- | Low -- °F
Precip. -- in
6:10 AM 8:56 PM
Waxing Gibbous, 95% visible
Pressure 30.01 in
Visibility 10.0 miles
Clouds Clear
Heat Index 81 °F
Dew Point 68 °F
Humidity 69%
Rainfall 0.14 in
Snow Depth Not available.
UV 8 out of 12
Pollen 1.20 out of 12
Air Quality Not available.
Flu Activity No Activity
METAR KMHK 101552Z 19012KT 10SM CLR 27/18 A3004 RMK AO2 SLP161 T02670183

More Conditions Fewer Conditions

Pressure 30.01 in
Visibility 10.0 miles
Clouds Clear
Heat Index 81 °F
Dew Point 68 °F
Humidity 69%
Rainfall 0.14 in
Snow Depth Not available.
UV 8 out of 12
Pollen 1.20 out of 12
Air Quality Not available.
Flu Activity No Activity
METAR KMHK 101552Z 19012KT 10SM CLR 27/18 A3004 RMK AO2 SLP161 T02670183

More Conditions Fewer Conditions

10-Day Weather Forecast

Almanac

Astronomy

Jul. 10, 2014 Rise Set
Actual Time 6:10 AM CDT 8:56 PM CDT
Civil Twilight 5:38 AM CDT 9:28 PM CDT
Nautical Twilight 4:58 AM CDT 10:08 PM CDT
Astronomical Twilight 4:13 AM CDT 10:53 PM CDT
Moon 7:11 PM CDT 4:22 AM CDT
Length of Visible Light 15h 49m
Length of Day
14h 46m
Tomorrow will be 1m 5s shorter.
Waxing Gibbous, 95% of the Moon is Illuminated
Today
Waxing Gibbous
Jul 12
Full
Jul 18
Last Quarter
Jul 26
New
Aug 3
First Quarter

Today's Extremes

State Highs State Lows

Community

WunderPhotos

Upload Photos

1,732,191 photos uploaded!

WunderBlogs® & News

Nearby

Snow Depth

Station Depth Elevation
No new snow has been reported.

Earthquake Activity

City Distance Mag. Time & Date
No recent earthquake activity has been reported nearby.
Minimum magnitude displayed is 2.5.

Coastal Water Temperatures

Place Temperature
No Stations Reporting

Nearby Weather Stations

Station Location Temp. Heat Index Dew Point Humidity Wind Precip. Elev Updated Type
Clay County Medical Center, Clay Center, KS 78.7 °F 81 °F 68 °F 69% ESE  at  15.0 mph 0.00 in / hr 1274 ft 11:54 AM CDT Rapid Fire
SW of Idana, Clay Center, KS 80.7 °F 83 °F 67 °F 63% South  at  4.0 mph 0.00 in / hr 1298 ft 11:40 AM CDT Normal
Wakefield, KS 80.2 °F 83 °F 67 °F 65% SE  at  0.0 mph 0.00 in / hr 1272 ft 11:54 AM CDT Rapid Fire

Show More Stations Show Fewer Stations